sensor_id;sensor_type;location;lat;lon;timestamp;P1;durP1;ratioP1;P2;durP2;ratioP2
69878;SDS011;57161;43.136;24.706;2023-07-22T00:02:15;11.55;;;5.00;;
69878;SDS011;57161;43.136;24.706;2023-07-22T00:04:40;10.20;;;5.03;;
69878;SDS011;57161;43.136;24.706;2023-07-22T00:07:05;13.75;;;5.20;;
69878;SDS011;57161;43.136;24.706;2023-07-22T00:09:34;13.00;;;4.85;;
69878;SDS011;57161;43.136;24.706;2023-07-22T00:12:00;13.82;;;5.28;;
69878;SDS011;57161;43.136;24.706;2023-07-22T00:14:25;13.13;;;4.88;;
69878;SDS011;57161;43.136;24.706;2023-07-22T00:16:51;16.83;;;4.95;;
69878;SDS011;57161;43.136;24.706;2023-07-22T00:19:16;10.32;;;5.10;;
69878;SDS011;57161;43.136;24.706;2023-07-22T00:21:42;12.55;;;5.30;;
69878;SDS011;57161;43.136;24.706;2023-07-22T00:24:07;13.25;;;5.10;;
69878;SDS011;57161;43.136;24.706;2023-07-22T00:26:33;11.93;;;5.50;;
69878;SDS011;57161;43.136;24.706;2023-07-22T00:28:59;12.02;;;5.70;;
69878;SDS011;57161;43.136;24.706;2023-07-22T00:31:24;15.07;;;5.72;;
69878;SDS011;57161;43.136;24.706;2023-07-22T00:33:50;16.70;;;5.53;;
69878;SDS011;57161;43.136;24.706;2023-07-22T00:36:15;15.35;;;5.70;;
69878;SDS011;57161;43.136;24.706;2023-07-22T00:38:41;14.90;;;5.50;;
69878;SDS011;57161;43.136;24.706;2023-07-22T00:41:06;11.80;;;5.80;;
69878;SDS011;57161;43.136;24.706;2023-07-22T00:43:32;14.77;;;5.80;;
69878;SDS011;57161;43.136;24.706;2023-07-22T00:45:58;15.63;;;5.88;;
69878;SDS011;57161;43.136;24.706;2023-07-22T00:48:24;19.90;;;6.03;;
69878;SDS011;57161;43.136;24.706;2023-07-22T00:50:51;12.48;;;5.40;;
69878;SDS011;57161;43.136;24.706;2023-07-22T00:53:16;16.40;;;4.70;;
69878;SDS011;57161;43.136;24.706;2023-07-22T00:55:43;11.07;;;5.60;;
69878;SDS011;57161;43.136;24.706;2023-07-22T00:58:10;12.63;;;5.43;;
69878;SDS011;57161;43.136;24.706;2023-07-22T01:00:36;16.48;;;5.75;;
69878;SDS011;57161;43.136;24.706;2023-07-22T01:03:01;13.30;;;5.57;;
69878;SDS011;57161;43.136;24.706;2023-07-22T01:05:28;16.35;;;5.45;;
69878;SDS011;57161;43.136;24.706;2023-07-22T01:07:55;13.65;;;5.57;;
69878;SDS011;57161;43.136;24.706;2023-07-22T01:10:21;18.00;;;5.95;;
69878;SDS011;57161;43.136;24.706;2023-07-22T01:12:47;14.30;;;5.18;;
69878;SDS011;57161;43.136;24.706;2023-07-22T01:15:13;12.82;;;5.25;;
69878;SDS011;57161;43.136;24.706;2023-07-22T01:17:39;18.20;;;5.40;;
69878;SDS011;57161;43.136;24.706;2023-07-22T01:20:05;19.15;;;5.95;;
69878;SDS011;57161;43.136;24.706;2023-07-22T01:22:32;17.40;;;5.30;;
69878;SDS011;57161;43.136;24.706;2023-07-22T01:24:58;16.00;;;5.60;;
69878;SDS011;57161;43.136;24.706;2023-07-22T01:27:24;16.83;;;5.13;;
69878;SDS011;57161;43.136;24.706;2023-07-22T01:29:50;16.55;;;5.03;;
69878;SDS011;57161;43.136;24.706;2023-07-22T01:32:17;14.90;;;4.75;;
69878;SDS011;57161;43.136;24.706;2023-07-22T01:34:43;15.98;;;5.13;;
69878;SDS011;57161;43.136;24.706;2023-07-22T01:37:08;10.25;;;4.35;;
69878;SDS011;57161;43.136;24.706;2023-07-22T01:39:34;19.52;;;4.53;;
69878;SDS011;57161;43.136;24.706;2023-07-22T01:42:00;13.82;;;4.53;;
69878;SDS011;57161;43.136;24.706;2023-07-22T01:44:27;19.60;;;4.63;;
69878;SDS011;57161;43.136;24.706;2023-07-22T01:46:52;13.80;;;4.53;;
69878;SDS011;57161;43.136;24.706;2023-07-22T01:49:18;14.23;;;4.15;;
69878;SDS011;57161;43.136;24.706;2023-07-22T01:51:43;13.32;;;4.75;;
69878;SDS011;57161;43.136;24.706;2023-07-22T01:54:09;17.70;;;4.75;;
69878;SDS011;57161;43.136;24.706;2023-07-22T01:56:35;14.18;;;5.13;;
69878;SDS011;57161;43.136;24.706;2023-07-22T01:59:02;16.50;;;4.95;;
69878;SDS011;57161;43.136;24.706;2023-07-22T02:01:27;14.35;;;4.95;;
69878;SDS011;57161;43.136;24.706;2023-07-22T02:03:53;15.30;;;4.82;;
69878;SDS011;57161;43.136;24.706;2023-07-22T02:06:19;13.85;;;4.93;;
69878;SDS011;57161;43.136;24.706;2023-07-22T02:08:45;12.82;;;4.97;;
69878;SDS011;57161;43.136;24.706;2023-07-22T02:11:11;22.10;;;4.90;;
69878;SDS011;57161;43.136;24.706;2023-07-22T02:13:37;15.57;;;5.25;;
69878;SDS011;57161;43.136;24.706;2023-07-22T02:16:02;13.60;;;4.85;;
69878;SDS011;57161;43.136;24.706;2023-07-22T02:18:28;15.82;;;5.43;;
69878;SDS011;57161;43.136;24.706;2023-07-22T02:20:55;14.63;;;5.50;;
69878;SDS011;57161;43.136;24.706;2023-07-22T02:23:21;14.77;;;5.28;;
69878;SDS011;57161;43.136;24.706;2023-07-22T02:25:51;18.17;;;4.88;;
69878;SDS011;57161;43.136;24.706;2023-07-22T02:28:17;11.35;;;4.78;;
69878;SDS011;57161;43.136;24.706;2023-07-22T02:30:53;14.20;;;5.05;;
69878;SDS011;57161;43.136;24.706;2023-07-22T02:33:19;26.90;;;5.38;;
69878;SDS011;57161;43.136;24.706;2023-07-22T02:35:45;15.55;;;4.88;;
69878;SDS011;57161;43.136;24.706;2023-07-22T02:38:12;17.67;;;5.35;;
69878;SDS011;57161;43.136;24.706;2023-07-22T02:40:39;17.02;;;5.40;;
69878;SDS011;57161;43.136;24.706;2023-07-22T02:43:05;11.55;;;5.15;;
69878;SDS011;57161;43.136;24.706;2023-07-22T02:45:32;12.35;;;5.32;;
69878;SDS011;57161;43.136;24.706;2023-07-22T02:47:58;15.88;;;5.65;;
69878;SDS011;57161;43.136;24.706;2023-07-22T02:50:23;16.50;;;5.43;;
69878;SDS011;57161;43.136;24.706;2023-07-22T02:52:49;20.48;;;5.05;;
69878;SDS011;57161;43.136;24.706;2023-07-22T02:55:15;17.38;;;5.53;;
69878;SDS011;57161;43.136;24.706;2023-07-22T02:57:45;15.80;;;5.07;;
69878;SDS011;57161;43.136;24.706;2023-07-22T03:00:12;13.57;;;4.88;;
69878;SDS011;57161;43.136;24.706;2023-07-22T03:02:59;14.52;;;5.13;;
69878;SDS011;57161;43.136;24.706;2023-07-22T03:05:29;13.10;;;5.30;;
69878;SDS011;57161;43.136;24.706;2023-07-22T03:07:56;15.15;;;5.38;;
69878;SDS011;57161;43.136;24.706;2023-07-22T03:10:23;14.40;;;5.38;;
69878;SDS011;57161;43.136;24.706;2023-07-22T03:12:50;13.95;;;4.90;;
69878;SDS011;57161;43.136;24.706;2023-07-22T03:15:20;20.33;;;5.22;;
69878;SDS011;57161;43.136;24.706;2023-07-22T03:17:46;16.50;;;5.75;;
69878;SDS011;57161;43.136;24.706;2023-07-22T03:20:11;16.58;;;5.20;;
69878;SDS011;57161;43.136;24.706;2023-07-22T03:22:43;13.23;;;5.07;;
69878;SDS011;57161;43.136;24.706;2023-07-22T03:25:09;15.88;;;4.55;;
69878;SDS011;57161;43.136;24.706;2023-07-22T03:27:35;22.52;;;5.13;;
69878;SDS011;57161;43.136;24.706;2023-07-22T03:30:02;15.90;;;5.00;;
69878;SDS011;57161;43.136;24.706;2023-07-22T03:32:28;17.98;;;5.47;;
69878;SDS011;57161;43.136;24.706;2023-07-22T03:34:54;17.30;;;4.75;;
69878;SDS011;57161;43.136;24.706;2023-07-22T03:37:19;21.30;;;5.30;;
69878;SDS011;57161;43.136;24.706;2023-07-22T03:39:45;12.20;;;4.68;;
69878;SDS011;57161;43.136;24.706;2023-07-22T03:42:11;16.13;;;5.20;;
69878;SDS011;57161;43.136;24.706;2023-07-22T03:44:37;15.70;;;5.05;;
69878;SDS011;57161;43.136;24.706;2023-07-22T03:47:02;15.95;;;5.30;;
69878;SDS011;57161;43.136;24.706;2023-07-22T03:49:28;17.35;;;4.97;;
69878;SDS011;57161;43.136;24.706;2023-07-22T03:51:53;14.93;;;5.13;;
69878;SDS011;57161;43.136;24.706;2023-07-22T03:54:19;19.05;;;5.22;;
69878;SDS011;57161;43.136;24.706;2023-07-22T03:56:44;19.45;;;5.05;;
69878;SDS011;57161;43.136;24.706;2023-07-22T03:59:10;22.30;;;5.70;;
69878;SDS011;57161;43.136;24.706;2023-07-22T04:01:35;18.83;;;5.25;;
69878;SDS011;57161;43.136;24.706;2023-07-22T04:04:01;16.92;;;5.13;;
69878;SDS011;57161;43.136;24.706;2023-07-22T04:06:26;11.20;;;4.63;;
69878;SDS011;57161;43.136;24.706;2023-07-22T04:08:52;15.25;;;5.22;;
69878;SDS011;57161;43.136;24.706;2023-07-22T04:11:17;16.33;;;5.03;;
69878;SDS011;57161;43.136;24.706;2023-07-22T04:13:43;14.68;;;5.50;;
69878;SDS011;57161;43.136;24.706;2023-07-22T04:16:08;17.27;;;5.32;;
69878;SDS011;57161;43.136;24.706;2023-07-22T04:18:34;16.20;;;5.75;;
69878;SDS011;57161;43.136;24.706;2023-07-22T04:20:59;14.30;;;4.32;;
69878;SDS011;57161;43.136;24.706;2023-07-22T04:23:25;22.45;;;5.45;;
69878;SDS011;57161;43.136;24.706;2023-07-22T04:25:51;15.07;;;5.35;;
69878;SDS011;57161;43.136;24.706;2023-07-22T04:28:17;15.70;;;4.80;;
69878;SDS011;57161;43.136;24.706;2023-07-22T04:30:42;13.23;;;4.80;;
69878;SDS011;57161;43.136;24.706;2023-07-22T04:33:08;19.77;;;5.50;;
69878;SDS011;57161;43.136;24.706;2023-07-22T04:35:37;14.73;;;5.22;;
69878;SDS011;57161;43.136;24.706;2023-07-22T04:38:03;17.95;;;5.15;;
69878;SDS011;57161;43.136;24.706;2023-07-22T04:40:29;16.35;;;5.05;;
69878;SDS011;57161;43.136;24.706;2023-07-22T04:42:55;15.82;;;5.10;;
69878;SDS011;57161;43.136;24.706;2023-07-22T04:45:21;16.58;;;4.88;;
69878;SDS011;57161;43.136;24.706;2023-07-22T04:47:49;12.85;;;5.45;;
69878;SDS011;57161;43.136;24.706;2023-07-22T04:50:17;14.48;;;5.05;;
69878;SDS011;57161;43.136;24.706;2023-07-22T04:52:44;16.75;;;5.35;;
69878;SDS011;57161;43.136;24.706;2023-07-22T04:55:11;16.08;;;5.55;;
69878;SDS011;57161;43.136;24.706;2023-07-22T04:57:40;13.10;;;4.95;;
69878;SDS011;57161;43.136;24.706;2023-07-22T05:00:13;13.20;;;5.28;;
69878;SDS011;57161;43.136;24.706;2023-07-22T05:02:41;17.45;;;5.07;;
69878;SDS011;57161;43.136;24.706;2023-07-22T05:05:11;20.40;;;5.38;;
69878;SDS011;57161;43.136;24.706;2023-07-22T05:07:39;15.70;;;5.03;;
69878;SDS011;57161;43.136;24.706;2023-07-22T05:10:06;18.33;;;5.30;;
69878;SDS011;57161;43.136;24.706;2023-07-22T05:12:37;19.73;;;5.10;;
69878;SDS011;57161;43.136;24.706;2023-07-22T05:15:05;18.33;;;5.03;;
69878;SDS011;57161;43.136;24.706;2023-07-22T05:17:31;11.73;;;4.85;;
69878;SDS011;57161;43.136;24.706;2023-07-22T05:19:57;15.18;;;5.75;;
69878;SDS011;57161;43.136;24.706;2023-07-22T05:22:23;16.35;;;5.10;;
69878;SDS011;57161;43.136;24.706;2023-07-22T05:24:49;18.13;;;5.57;;
69878;SDS011;57161;43.136;24.706;2023-07-22T05:27:15;14.73;;;5.18;;
69878;SDS011;57161;43.136;24.706;2023-07-22T05:29:42;18.05;;;5.13;;
69878;SDS011;57161;43.136;24.706;2023-07-22T05:32:07;17.98;;;5.00;;
69878;SDS011;57161;43.136;24.706;2023-07-22T05:34:33;16.30;;;5.13;;
69878;SDS011;57161;43.136;24.706;2023-07-22T05:36:59;14.32;;;5.22;;
69878;SDS011;57161;43.136;24.706;2023-07-22T05:39:24;16.50;;;5.28;;
69878;SDS011;57161;43.136;24.706;2023-07-22T05:41:50;16.77;;;5.55;;
69878;SDS011;57161;43.136;24.706;2023-07-22T05:44:15;16.08;;;5.45;;
69878;SDS011;57161;43.136;24.706;2023-07-22T05:46:41;12.43;;;5.07;;
69878;SDS011;57161;43.136;24.706;2023-07-22T05:49:07;19.33;;;5.32;;
69878;SDS011;57161;43.136;24.706;2023-07-22T05:51:32;17.42;;;6.18;;
69878;SDS011;57161;43.136;24.706;2023-07-22T05:53:58;17.98;;;5.18;;
69878;SDS011;57161;43.136;24.706;2023-07-22T05:56:24;14.98;;;5.78;;
69878;SDS011;57161;43.136;24.706;2023-07-22T05:58:49;17.15;;;5.68;;
69878;SDS011;57161;43.136;24.706;2023-07-22T06:01:15;14.82;;;5.25;;
69878;SDS011;57161;43.136;24.706;2023-07-22T06:03:40;14.18;;;5.35;;
69878;SDS011;57161;43.136;24.706;2023-07-22T06:06:07;13.13;;;5.18;;
69878;SDS011;57161;43.136;24.706;2023-07-22T06:08:32;10.52;;;4.90;;
69878;SDS011;57161;43.136;24.706;2023-07-22T06:10:58;17.02;;;4.70;;
69878;SDS011;57161;43.136;24.706;2023-07-22T06:13:23;12.50;;;5.10;;
69878;SDS011;57161;43.136;24.706;2023-07-22T06:15:49;16.42;;;4.88;;
69878;SDS011;57161;43.136;24.706;2023-07-22T06:18:14;12.15;;;4.80;;
69878;SDS011;57161;43.136;24.706;2023-07-22T06:20:40;16.55;;;5.00;;
69878;SDS011;57161;43.136;24.706;2023-07-22T06:23:05;12.40;;;5.10;;
69878;SDS011;57161;43.136;24.706;2023-07-22T06:25:31;18.45;;;4.75;;
69878;SDS011;57161;43.136;24.706;2023-07-22T06:27:56;18.58;;;4.65;;
69878;SDS011;57161;43.136;24.706;2023-07-22T06:30:22;8.90;;;4.22;;
69878;SDS011;57161;43.136;24.706;2023-07-22T06:32:47;12.88;;;4.60;;
69878;SDS011;57161;43.136;24.706;2023-07-22T06:35:13;15.95;;;4.57;;
69878;SDS011;57161;43.136;24.706;2023-07-22T06:37:38;15.43;;;4.32;;
69878;SDS011;57161;43.136;24.706;2023-07-22T06:40:05;10.30;;;3.90;;
69878;SDS011;57161;43.136;24.706;2023-07-22T06:42:31;8.05;;;3.50;;
69878;SDS011;57161;43.136;24.706;2023-07-22T06:44:58;10.38;;;3.45;;
69878;SDS011;57161;43.136;24.706;2023-07-22T06:47:23;7.80;;;3.17;;
69878;SDS011;57161;43.136;24.706;2023-07-22T06:49:49;9.90;;;3.40;;
69878;SDS011;57161;43.136;24.706;2023-07-22T06:52:15;7.53;;;3.75;;
69878;SDS011;57161;43.136;24.706;2023-07-22T06:54:41;8.50;;;3.88;;
69878;SDS011;57161;43.136;24.706;2023-07-22T06:57:07;13.50;;;3.55;;
69878;SDS011;57161;43.136;24.706;2023-07-22T06:59:32;5.80;;;3.15;;
69878;SDS011;57161;43.136;24.706;2023-07-22T07:01:58;8.50;;;3.60;;
69878;SDS011;57161;43.136;24.706;2023-07-22T07:04:24;6.68;;;3.55;;
69878;SDS011;57161;43.136;24.706;2023-07-22T07:06:50;10.98;;;3.20;;
69878;SDS011;57161;43.136;24.706;2023-07-22T07:09:15;11.80;;;3.75;;
69878;SDS011;57161;43.136;24.706;2023-07-22T07:11:41;7.57;;;3.63;;
69878;SDS011;57161;43.136;24.706;2023-07-22T07:14:06;11.77;;;3.22;;
69878;SDS011;57161;43.136;24.706;2023-07-22T07:16:32;11.05;;;3.13;;
69878;SDS011;57161;43.136;24.706;2023-07-22T07:18:59;11.20;;;3.20;;
69878;SDS011;57161;43.136;24.706;2023-07-22T07:21:25;10.43;;;2.97;;
69878;SDS011;57161;43.136;24.706;2023-07-22T07:23:52;8.27;;;3.22;;
69878;SDS011;57161;43.136;24.706;2023-07-22T07:26:18;7.90;;;3.85;;
69878;SDS011;57161;43.136;24.706;2023-07-22T07:28:45;5.20;;;2.55;;
69878;SDS011;57161;43.136;24.706;2023-07-22T07:31:16;9.63;;;2.78;;
69878;SDS011;57161;43.136;24.706;2023-07-22T07:33:42;7.43;;;3.15;;
69878;SDS011;57161;43.136;24.706;2023-07-22T07:36:07;9.50;;;3.10;;
69878;SDS011;57161;43.136;24.706;2023-07-22T07:38:32;6.57;;;3.03;;
69878;SDS011;57161;43.136;24.706;2023-07-22T07:40:59;10.43;;;3.33;;
69878;SDS011;57161;43.136;24.706;2023-07-22T07:43:28;10.43;;;3.35;;
69878;SDS011;57161;43.136;24.706;2023-07-22T07:48:46;12.27;;;3.40;;
69878;SDS011;57161;43.136;24.706;2023-07-22T07:51:15;6.57;;;3.13;;
69878;SDS011;57161;43.136;24.706;2023-07-22T07:53:41;9.00;;;3.53;;
69878;SDS011;57161;43.136;24.706;2023-07-22T07:56:09;8.48;;;3.30;;
69878;SDS011;57161;43.136;24.706;2023-07-22T07:58:35;9.55;;;3.20;;
69878;SDS011;57161;43.136;24.706;2023-07-22T08:01:01;7.32;;;3.15;;
69878;SDS011;57161;43.136;24.706;2023-07-22T08:03:26;7.10;;;3.00;;
69878;SDS011;57161;43.136;24.706;2023-07-22T08:05:52;7.47;;;3.30;;
69878;SDS011;57161;43.136;24.706;2023-07-22T08:08:17;8.55;;;3.40;;
69878;SDS011;57161;43.136;24.706;2023-07-22T08:10:43;7.40;;;3.22;;
69878;SDS011;57161;43.136;24.706;2023-07-22T08:13:10;9.73;;;3.00;;
69878;SDS011;57161;43.136;24.706;2023-07-22T08:15:35;6.95;;;3.08;;
69878;SDS011;57161;43.136;24.706;2023-07-22T08:18:01;9.30;;;3.40;;
69878;SDS011;57161;43.136;24.706;2023-07-22T08:20:26;6.25;;;2.90;;
69878;SDS011;57161;43.136;24.706;2023-07-22T08:22:52;7.30;;;3.03;;
69878;SDS011;57161;43.136;24.706;2023-07-22T08:25:17;7.32;;;3.30;;
69878;SDS011;57161;43.136;24.706;2023-07-22T08:27:43;9.73;;;3.25;;
69878;SDS011;57161;43.136;24.706;2023-07-22T08:30:08;10.75;;;3.08;;
69878;SDS011;57161;43.136;24.706;2023-07-22T08:32:35;9.77;;;3.05;;
69878;SDS011;57161;43.136;24.706;2023-07-22T08:35:00;8.55;;;2.92;;
69878;SDS011;57161;43.136;24.706;2023-07-22T08:37:26;11.55;;;3.15;;
69878;SDS011;57161;43.136;24.706;2023-07-22T08:39:51;10.70;;;3.20;;
69878;SDS011;57161;43.136;24.706;2023-07-22T08:42:17;8.02;;;2.95;;
69878;SDS011;57161;43.136;24.706;2023-07-22T08:44:44;8.05;;;3.30;;
69878;SDS011;57161;43.136;24.706;2023-07-22T08:47:14;9.07;;;3.70;;
69878;SDS011;57161;43.136;24.706;2023-07-22T08:49:45;9.07;;;3.40;;
69878;SDS011;57161;43.136;24.706;2023-07-22T08:52:15;7.38;;;2.95;;
69878;SDS011;57161;43.136;24.706;2023-07-22T08:54:42;8.55;;;3.28;;
69878;SDS011;57161;43.136;24.706;2023-07-22T08:57:11;6.70;;;2.63;;
69878;SDS011;57161;43.136;24.706;2023-07-22T08:59:37;9.18;;;3.33;;
69878;SDS011;57161;43.136;24.706;2023-07-22T09:02:03;9.05;;;3.10;;
69878;SDS011;57161;43.136;24.706;2023-07-22T09:04:30;9.68;;;3.30;;
69878;SDS011;57161;43.136;24.706;2023-07-22T09:06:56;10.25;;;3.20;;
69878;SDS011;57161;43.136;24.706;2023-07-22T09:09:22;10.35;;;2.92;;
69878;SDS011;57161;43.136;24.706;2023-07-22T09:11:49;8.57;;;3.03;;
69878;SDS011;57161;43.136;24.706;2023-07-22T09:14:15;5.50;;;3.35;;
69878;SDS011;57161;43.136;24.706;2023-07-22T09:16:44;9.85;;;3.45;;
69878;SDS011;57161;43.136;24.706;2023-07-22T09:19:10;6.55;;;3.33;;
69878;SDS011;57161;43.136;24.706;2023-07-22T09:21:35;9.15;;;3.33;;
69878;SDS011;57161;43.136;24.706;2023-07-22T09:24:01;13.98;;;3.42;;
69878;SDS011;57161;43.136;24.706;2023-07-22T09:26:27;9.35;;;3.90;;
69878;SDS011;57161;43.136;24.706;2023-07-22T09:28:57;9.30;;;3.17;;
69878;SDS011;57161;43.136;24.706;2023-07-22T09:31:24;8.65;;;3.33;;
69878;SDS011;57161;43.136;24.706;2023-07-22T09:33:51;8.20;;;3.20;;
69878;SDS011;57161;43.136;24.706;2023-07-22T09:36:20;7.50;;;3.30;;
69878;SDS011;57161;43.136;24.706;2023-07-22T09:39:07;8.63;;;3.22;;
69878;SDS011;57161;43.136;24.706;2023-07-22T09:41:32;12.82;;;3.55;;
69878;SDS011;57161;43.136;24.706;2023-07-22T09:44:01;10.98;;;3.65;;
69878;SDS011;57161;43.136;24.706;2023-07-22T09:46:31;10.80;;;3.50;;
69878;SDS011;57161;43.136;24.706;2023-07-22T09:49:04;10.07;;;4.03;;
69878;SDS011;57161;43.136;24.706;2023-07-22T09:51:33;11.57;;;3.88;;
69878;SDS011;57161;43.136;24.706;2023-07-22T09:54:03;9.88;;;3.40;;
69878;SDS011;57161;43.136;24.706;2023-07-22T09:56:30;9.60;;;3.45;;
69878;SDS011;57161;43.136;24.706;2023-07-22T09:58:59;8.80;;;3.55;;
69878;SDS011;57161;43.136;24.706;2023-07-22T10:01:30;9.68;;;3.92;;
69878;SDS011;57161;43.136;24.706;2023-07-22T10:03:57;10.20;;;3.97;;
69878;SDS011;57161;43.136;24.706;2023-07-22T10:06:24;9.13;;;4.63;;
69878;SDS011;57161;43.136;24.706;2023-07-22T10:08:52;14.65;;;4.30;;
69878;SDS011;57161;43.136;24.706;2023-07-22T10:11:19;12.75;;;4.07;;
69878;SDS011;57161;43.136;24.706;2023-07-22T10:13:47;17.10;;;4.15;;
69878;SDS011;57161;43.136;24.706;2023-07-22T10:16:13;14.82;;;4.05;;
69878;SDS011;57161;43.136;24.706;2023-07-22T10:18:40;10.23;;;3.92;;
69878;SDS011;57161;43.136;24.706;2023-07-22T10:21:08;8.07;;;3.55;;
69878;SDS011;57161;43.136;24.706;2023-07-22T10:23:33;9.63;;;3.60;;
69878;SDS011;57161;43.136;24.706;2023-07-22T10:26:01;13.32;;;4.05;;
69878;SDS011;57161;43.136;24.706;2023-07-22T10:28:28;7.68;;;3.78;;
69878;SDS011;57161;43.136;24.706;2023-07-22T10:30:54;12.00;;;4.07;;
69878;SDS011;57161;43.136;24.706;2023-07-22T10:33:21;13.48;;;4.22;;
69878;SDS011;57161;43.136;24.706;2023-07-22T10:36:04;12.25;;;4.60;;
69878;SDS011;57161;43.136;24.706;2023-07-22T10:38:34;13.98;;;4.40;;
69878;SDS011;57161;43.136;24.706;2023-07-22T10:41:00;14.88;;;4.78;;
69878;SDS011;57161;43.136;24.706;2023-07-22T10:43:35;13.98;;;4.15;;
69878;SDS011;57161;43.136;24.706;2023-07-22T10:46:05;14.27;;;4.40;;
69878;SDS011;57161;43.136;24.706;2023-07-22T10:48:36;13.38;;;4.13;;
69878;SDS011;57161;43.136;24.706;2023-07-22T10:51:21;11.30;;;4.15;;
69878;SDS011;57161;43.136;24.706;2023-07-22T10:53:47;8.77;;;3.65;;
69878;SDS011;57161;43.136;24.706;2023-07-22T10:56:14;9.70;;;4.00;;
69878;SDS011;57161;43.136;24.706;2023-07-22T11:07:02;11.75;;;4.30;;
69878;SDS011;57161;43.136;24.706;2023-07-22T11:11:56;17.00;;;4.28;;
69878;SDS011;57161;43.136;24.706;2023-07-22T11:14:22;15.43;;;4.00;;
69878;SDS011;57161;43.136;24.706;2023-07-22T11:16:49;8.35;;;3.40;;
69878;SDS011;57161;43.136;24.706;2023-07-22T11:19:16;12.15;;;4.05;;
69878;SDS011;57161;43.136;24.706;2023-07-22T11:21:47;12.43;;;3.65;;
69878;SDS011;57161;43.136;24.706;2023-07-22T11:24:13;13.43;;;3.90;;
69878;SDS011;57161;43.136;24.706;2023-07-22T11:26:40;11.95;;;3.78;;
69878;SDS011;57161;43.136;24.706;2023-07-22T11:29:06;20.77;;;4.28;;
69878;SDS011;57161;43.136;24.706;2023-07-22T11:31:34;12.13;;;3.83;;
69878;SDS011;57161;43.136;24.706;2023-07-22T11:34:02;12.85;;;4.28;;
69878;SDS011;57161;43.136;24.706;2023-07-22T11:36:28;15.18;;;4.88;;
69878;SDS011;57161;43.136;24.706;2023-07-22T11:38:54;14.57;;;4.80;;
69878;SDS011;57161;43.136;24.706;2023-07-22T11:41:36;17.83;;;4.88;;
69878;SDS011;57161;43.136;24.706;2023-07-22T11:44:03;11.80;;;4.20;;
69878;SDS011;57161;43.136;24.706;2023-07-22T11:46:44;12.52;;;4.45;;
69878;SDS011;57161;43.136;24.706;2023-07-22T11:49:22;14.45;;;4.38;;
69878;SDS011;57161;43.136;24.706;2023-07-22T11:51:58;12.57;;;4.47;;
69878;SDS011;57161;43.136;24.706;2023-07-22T11:54:26;12.13;;;4.68;;
69878;SDS011;57161;43.136;24.706;2023-07-22T11:56:52;11.32;;;3.83;;
69878;SDS011;57161;43.136;24.706;2023-07-22T11:59:31;18.05;;;4.70;;
69878;SDS011;57161;43.136;24.706;2023-07-22T12:02:04;13.50;;;4.22;;
69878;SDS011;57161;43.136;24.706;2023-07-22T12:04:30;11.35;;;3.88;;
69878;SDS011;57161;43.136;24.706;2023-07-22T12:06:57;16.65;;;4.68;;
69878;SDS011;57161;43.136;24.706;2023-07-22T12:09:22;16.50;;;4.78;;
69878;SDS011;57161;43.136;24.706;2023-07-22T12:11:49;19.40;;;5.22;;
69878;SDS011;57161;43.136;24.706;2023-07-22T12:14:21;16.67;;;5.45;;
69878;SDS011;57161;43.136;24.706;2023-07-22T12:16:46;20.40;;;5.55;;
69878;SDS011;57161;43.136;24.706;2023-07-22T12:19:12;14.52;;;5.22;;
69878;SDS011;57161;43.136;24.706;2023-07-22T12:21:37;17.60;;;5.13;;
69878;SDS011;57161;43.136;24.706;2023-07-22T12:24:03;17.00;;;4.88;;
69878;SDS011;57161;43.136;24.706;2023-07-22T12:26:29;17.20;;;4.60;;
69878;SDS011;57161;43.136;24.706;2023-07-22T12:28:55;16.85;;;5.45;;
69878;SDS011;57161;43.136;24.706;2023-07-22T12:31:20;13.63;;;4.88;;
69878;SDS011;57161;43.136;24.706;2023-07-22T12:33:46;19.80;;;5.20;;
69878;SDS011;57161;43.136;24.706;2023-07-22T12:36:11;14.57;;;5.07;;
69878;SDS011;57161;43.136;24.706;2023-07-22T12:38:37;16.15;;;5.30;;
69878;SDS011;57161;43.136;24.706;2023-07-22T12:41:02;18.88;;;5.10;;
69878;SDS011;57161;43.136;24.706;2023-07-22T12:43:28;16.33;;;5.40;;
69878;SDS011;57161;43.136;24.706;2023-07-22T12:45:54;20.45;;;5.05;;
69878;SDS011;57161;43.136;24.706;2023-07-22T12:48:20;16.00;;;5.15;;
69878;SDS011;57161;43.136;24.706;2023-07-22T12:50:45;24.40;;;5.63;;
69878;SDS011;57161;43.136;24.706;2023-07-22T12:53:13;17.83;;;6.00;;
69878;SDS011;57161;43.136;24.706;2023-07-22T12:58:08;20.85;;;5.80;;
69878;SDS011;57161;43.136;24.706;2023-07-22T13:00:33;19.40;;;5.80;;
69878;SDS011;57161;43.136;24.706;2023-07-22T13:02:59;17.52;;;6.32;;
69878;SDS011;57161;43.136;24.706;2023-07-22T13:05:25;20.90;;;6.90;;
69878;SDS011;57161;43.136;24.706;2023-07-22T13:07:50;18.95;;;6.78;;
69878;SDS011;57161;43.136;24.706;2023-07-22T13:10:16;19.67;;;5.72;;
69878;SDS011;57161;43.136;24.706;2023-07-22T13:12:44;20.88;;;5.93;;
69878;SDS011;57161;43.136;24.706;2023-07-22T13:15:10;22.42;;;5.82;;
69878;SDS011;57161;43.136;24.706;2023-07-22T13:17:35;15.38;;;5.55;;
69878;SDS011;57161;43.136;24.706;2023-07-22T13:20:01;13.27;;;5.28;;
69878;SDS011;57161;43.136;24.706;2023-07-22T13:22:30;15.25;;;5.57;;
69878;SDS011;57161;43.136;24.706;2023-07-22T13:24:55;21.73;;;6.18;;
69878;SDS011;57161;43.136;24.706;2023-07-22T13:27:21;17.55;;;6.20;;
69878;SDS011;57161;43.136;24.706;2023-07-22T13:29:46;14.95;;;5.88;;
69878;SDS011;57161;43.136;24.706;2023-07-22T13:32:12;15.68;;;5.15;;
69878;SDS011;57161;43.136;24.706;2023-07-22T13:34:37;15.50;;;5.00;;
69878;SDS011;57161;43.136;24.706;2023-07-22T13:37:03;15.55;;;5.03;;
69878;SDS011;57161;43.136;24.706;2023-07-22T13:39:29;17.35;;;5.03;;
69878;SDS011;57161;43.136;24.706;2023-07-22T13:41:54;10.85;;;4.78;;
69878;SDS011;57161;43.136;24.706;2023-07-22T13:44:20;13.50;;;4.32;;
69878;SDS011;57161;43.136;24.706;2023-07-22T13:46:45;12.73;;;4.70;;
69878;SDS011;57161;43.136;24.706;2023-07-22T13:49:10;16.88;;;4.07;;
69878;SDS011;57161;43.136;24.706;2023-07-22T13:51:36;13.20;;;4.13;;
69878;SDS011;57161;43.136;24.706;2023-07-22T13:54:01;15.32;;;5.30;;
69878;SDS011;57161;43.136;24.706;2023-07-22T13:56:27;20.63;;;5.05;;
69878;SDS011;57161;43.136;24.706;2023-07-22T13:58:53;14.63;;;4.75;;
69878;SDS011;57161;43.136;24.706;2023-07-22T14:01:19;22.83;;;5.18;;
69878;SDS011;57161;43.136;24.706;2023-07-22T14:03:44;10.70;;;4.45;;
69878;SDS011;57161;43.136;24.706;2023-07-22T14:06:10;13.68;;;4.50;;
69878;SDS011;57161;43.136;24.706;2023-07-22T14:08:35;15.43;;;4.55;;
69878;SDS011;57161;43.136;24.706;2023-07-22T14:11:03;8.95;;;3.92;;
69878;SDS011;57161;43.136;24.706;2023-07-22T14:13:28;14.57;;;4.50;;
69878;SDS011;57161;43.136;24.706;2023-07-22T14:15:54;20.58;;;4.90;;
69878;SDS011;57161;43.136;24.706;2023-07-22T14:18:19;12.80;;;4.55;;
69878;SDS011;57161;43.136;24.706;2023-07-22T14:20:45;13.52;;;4.53;;
69878;SDS011;57161;43.136;24.706;2023-07-22T14:23:11;15.23;;;4.40;;
69878;SDS011;57161;43.136;24.706;2023-07-22T14:25:37;16.52;;;4.47;;
69878;SDS011;57161;43.136;24.706;2023-07-22T14:28:02;15.77;;;4.70;;
69878;SDS011;57161;43.136;24.706;2023-07-22T14:30:28;16.45;;;4.60;;
69878;SDS011;57161;43.136;24.706;2023-07-22T14:32:54;16.38;;;4.68;;
69878;SDS011;57161;43.136;24.706;2023-07-22T14:35:20;10.93;;;4.38;;
69878;SDS011;57161;43.136;24.706;2023-07-22T14:37:46;14.68;;;4.53;;